createdAt,value
2019-06-20T00:02:06.015Z,8.78
2019-06-20T00:04:37.538Z,9.08
2019-06-20T00:07:09.073Z,9.48
2019-06-20T00:09:40.562Z,9.18
2019-06-20T00:12:14.476Z,8.65
2019-06-20T00:14:46.229Z,9.13
2019-06-20T00:17:17.739Z,9.13
2019-06-20T00:19:49.115Z,9.48
2019-06-20T00:22:20.823Z,9.38
2019-06-20T00:24:52.813Z,10.30
2019-06-20T00:27:27.560Z,10.50
2019-06-20T00:29:59.197Z,10.75
2019-06-20T00:32:30.829Z,9.65
2019-06-20T00:35:02.432Z,10.95
2019-06-20T00:37:33.988Z,12.05
2019-06-20T00:40:06.419Z,12.35
2019-06-20T00:42:38.146Z,11.88
2019-06-20T00:45:12.515Z,11.53
2019-06-20T00:47:43.941Z,9.80
2019-06-20T00:50:16.138Z,12.18
2019-06-20T00:52:47.651Z,12.68
2019-06-20T00:55:19.222Z,13.62
2019-06-20T00:57:50.709Z,12.98
2019-06-20T01:00:25.804Z,13.65
2019-06-20T01:02:57.283Z,13.10
2019-06-20T01:05:31.187Z,12.80
2019-06-20T01:08:02.739Z,11.83
2019-06-20T01:10:34.300Z,12.43
2019-06-20T01:13:05.959Z,12.30
2019-06-20T01:15:37.501Z,12.53
2019-06-20T01:18:09.366Z,12.90
2019-06-20T01:20:40.989Z,13.15
2019-06-20T01:23:12.567Z,12.85
2019-06-20T01:25:45.454Z,13.10
2019-06-20T01:28:17.273Z,13.13
2019-06-20T01:30:48.965Z,13.10
2019-06-20T01:33:20.431Z,12.50
2019-06-20T01:35:51.988Z,13.00
2019-06-20T01:38:23.851Z,13.32
2019-06-20T01:40:58.263Z,14.33
2019-06-20T01:43:30.091Z,13.98
2019-06-20T01:46:01.661Z,13.72
2019-06-20T01:48:33.161Z,14.93
2019-06-20T01:51:06.343Z,13.95
2019-06-20T01:53:37.853Z,14.87
2019-06-20T01:56:09.511Z,14.38
2019-06-20T01:58:41.007Z,13.48
2019-06-20T02:01:12.457Z,14.13
2019-06-20T02:03:44.522Z,15.68
2019-06-20T02:06:16.422Z,15.95
2019-06-20T02:08:47.907Z,16.02
2019-06-20T02:11:22.051Z,16.82
2019-06-20T02:14:06.368Z,17.00
2019-06-20T02:16:26.806Z,17.45
2019-06-20T02:18:58.437Z,17.45
2019-06-20T02:21:30.179Z,17.37
2019-06-20T02:24:01.833Z,17.70
2019-06-20T02:26:33.886Z,16.85
2019-06-20T02:29:05.471Z,16.90
2019-06-20T02:31:37.012Z,17.55
2019-06-20T02:34:08.686Z,17.60
2019-06-20T02:36:40.343Z,18.20
2019-06-20T02:39:11.863Z,17.25
2019-06-20T02:41:43.523Z,17.75
2019-06-20T02:44:29.401Z,18.30
2019-06-20T02:46:48.496Z,19.83
2019-06-20T02:49:23.119Z,16.52
2019-06-20T02:51:55.498Z,17.27
2019-06-20T02:54:27.014Z,6.72
2019-06-20T02:56:59.306Z,18.00
2019-06-20T02:59:30.900Z,15.18
2019-06-20T03:02:02.629Z,12.30
2019-06-20T03:04:34.239Z,16.97
2019-06-20T03:07:05.809Z,13.25
2019-06-20T03:09:38.505Z,17.75
2019-06-20T03:12:10.379Z,17.30
2019-06-20T03:14:45.728Z,17.02
2019-06-20T03:17:15.640Z,19.23
2019-06-20T03:19:47.742Z,17.12
2019-06-20T03:22:19.686Z,17.15
2019-06-20T03:24:51.165Z,17.77
2019-06-20T03:27:25.191Z,18.40
2019-06-20T03:29:59.757Z,19.95
2019-06-20T03:32:32.733Z,19.87
2019-06-20T03:35:04.504Z,19.30
2019-06-20T03:37:36.225Z,19.92
2019-06-20T03:40:08.063Z,15.88
2019-06-20T03:42:39.617Z,12.40
2019-06-20T03:45:11.751Z,18.82
2019-06-20T03:47:43.300Z,15.72
2019-06-20T03:50:15.277Z,16.67
2019-06-20T03:52:48.885Z,13.80
2019-06-20T03:55:23.305Z,17.67
2019-06-20T03:57:55.110Z,13.05
2019-06-20T04:00:26.947Z,8.60
2019-06-20T04:02:58.766Z,12.73
2019-06-20T04:05:30.424Z,14.13
2019-06-20T04:08:02.253Z,13.45
2019-06-20T04:10:37.001Z,11.97
2019-06-20T04:13:08.525Z,10.45
2019-06-20T04:15:40.396Z,14.70
2019-06-20T04:18:12.140Z,8.83
2019-06-20T04:20:43.646Z,6.33
2019-06-20T04:23:15.246Z,9.18
2019-06-20T04:25:47.065Z,8.80
2019-06-20T04:28:18.741Z,9.00
2019-06-20T04:30:50.523Z,12.10
2019-06-20T04:33:22.235Z,12.25
2019-06-20T04:35:53.966Z,13.50
2019-06-20T04:38:25.518Z,12.35
2019-06-20T04:40:57.149Z,10.88
2019-06-20T04:43:28.728Z,9.98
2019-06-20T04:46:25.721Z,9.20
2019-06-20T04:48:57.255Z,14.05
2019-06-20T04:51:28.844Z,6.35
2019-06-20T04:54:00.518Z,13.05
2019-06-20T04:59:16.317Z,14.85
2019-06-20T05:01:47.920Z,8.48
2019-06-20T05:04:19.710Z,15.43
2019-06-20T05:06:55.295Z,17.60
2019-06-20T05:09:27.926Z,10.50
2019-06-20T05:11:59.559Z,16.65
2019-06-20T05:14:32.768Z,11.63
2019-06-20T05:17:07.139Z,13.18
2019-06-20T05:19:37.749Z,13.35
2019-06-20T05:22:12.652Z,13.98
2019-06-20T05:24:44.619Z,18.62
2019-06-20T05:27:17.877Z,19.42
2019-06-20T05:29:53.168Z,18.42
2019-06-20T05:32:27.539Z,19.45
2019-06-20T05:35:02.830Z,21.97
2019-06-20T05:39:06.217Z,19.20
2019-06-20T05:41:42.473Z,16.90
2019-06-20T05:44:15.855Z,9.63
2019-06-20T05:46:48.654Z,14.75
2019-06-20T05:49:20.298Z,14.45
2019-06-20T05:51:52.952Z,14.53
2019-06-20T05:54:24.491Z,17.45
2019-06-20T05:56:56.172Z,14.00
2019-06-20T05:59:28.961Z,15.18
2019-06-20T06:02:00.648Z,16.23
2019-06-20T06:04:33.694Z,14.60
2019-06-20T06:07:05.247Z,14.80
2019-06-20T06:09:37.523Z,14.63
2019-06-20T06:12:09.794Z,11.68
2019-06-20T06:14:43.836Z,15.85
2019-06-20T06:17:19.805Z,15.38
2019-06-20T06:19:52.689Z,8.85
2019-06-20T06:22:26.418Z,11.95
2019-06-20T06:25:06.543Z,15.40
2019-06-20T06:27:38.503Z,18.15
2019-06-20T06:30:12.163Z,14.78
2019-06-20T06:32:44.084Z,19.30
2019-06-20T06:35:16.208Z,18.57
2019-06-20T06:37:48.098Z,20.45
2019-06-20T06:40:21.955Z,16.57
2019-06-20T06:42:53.619Z,22.75
2019-06-20T06:45:30.356Z,23.75
2019-06-20T06:48:02.158Z,20.35
2019-06-20T06:50:35.088Z,15.32
2019-06-20T06:53:07.027Z,20.72
2019-06-20T06:55:38.693Z,18.27
2019-06-20T06:58:10.295Z,14.28
2019-06-20T07:00:41.857Z,18.98
2019-06-20T07:03:13.836Z,19.52
2019-06-20T07:05:46.272Z,20.37
2019-06-20T07:08:17.889Z,19.20
2019-06-20T07:10:49.773Z,20.75
2019-06-20T07:13:22.046Z,18.23
2019-06-20T07:16:00.917Z,15.80
2019-06-20T07:18:32.598Z,16.52
2019-06-20T07:21:07.195Z,18.90
2019-06-20T07:23:39.926Z,15.63
2019-06-20T07:26:12.643Z,13.35
2019-06-20T07:28:44.337Z,16.87
2019-06-20T07:31:15.833Z,21.70
2019-06-20T07:33:47.700Z,17.37
2019-06-20T07:36:19.397Z,19.62
2019-06-20T07:38:54.257Z,19.45
2019-06-20T07:41:26.487Z,16.35
2019-06-20T07:43:58.158Z,18.52
2019-06-20T07:46:29.942Z,18.65
2019-06-20T07:49:01.542Z,16.97
2019-06-20T07:51:33.436Z,16.55
2019-06-20T07:54:05.274Z,19.23
2019-06-20T07:57:43.399Z,16.40
2019-06-20T08:00:17.352Z,17.35
2019-06-20T08:02:48.962Z,16.80
2019-06-20T08:05:21.025Z,18.27
2019-06-20T08:07:54.581Z,14.80
2019-06-20T08:10:28.480Z,16.67
2019-06-20T08:12:59.985Z,16.75
2019-06-20T08:15:33.664Z,18.82
2019-06-20T08:18:05.681Z,17.82
2019-06-20T08:20:37.403Z,17.23
2019-06-20T08:23:09.097Z,17.37
2019-06-20T08:25:40.633Z,17.32
2019-06-20T08:28:12.317Z,18.15
2019-06-20T08:30:45.738Z,15.58
2019-06-20T08:33:17.388Z,17.10
2019-06-20T08:35:48.968Z,15.35
2019-06-20T08:38:20.692Z,18.05
2019-06-20T08:40:52.611Z,15.83
2019-06-20T08:43:24.276Z,14.30
2019-06-20T08:47:02.339Z,17.32
2019-06-20T08:49:34.017Z,9.98
2019-06-20T08:52:05.786Z,16.07
2019-06-20T08:54:37.394Z,17.48
2019-06-20T08:57:08.938Z,17.98
2019-06-20T08:59:42.940Z,19.10
2019-06-20T09:02:16.153Z,17.92
2019-06-20T09:04:49.777Z,16.02
2019-06-20T09:07:22.066Z,19.32
2019-06-20T09:09:54.211Z,21.97
2019-06-20T09:12:26.401Z,11.10
2019-06-20T09:14:59.204Z,18.85
2019-06-20T09:17:31.419Z,20.97
2019-06-20T09:20:03.811Z,21.93
2019-06-20T09:23:38.631Z,18.85
2019-06-20T09:26:10.513Z,17.07
2019-06-20T09:28:42.457Z,22.25
2019-06-20T09:31:14.308Z,21.25
2019-06-20T09:33:46.247Z,19.20
2019-06-20T09:36:19.336Z,12.65
2019-06-20T09:38:52.464Z,19.92
2019-06-20T09:41:24.744Z,20.20
2019-06-20T09:43:56.487Z,18.20
2019-06-20T09:46:28.441Z,17.98
2019-06-20T09:49:00.204Z,14.78
2019-06-20T09:51:32.134Z,14.20
2019-06-20T09:54:03.935Z,20.50
2019-06-20T09:56:35.825Z,20.32
2019-06-20T09:59:07.728Z,19.45
2019-06-20T10:01:39.494Z,17.90
2019-06-20T10:04:12.278Z,17.57
2019-06-20T10:06:44.341Z,19.02
2019-06-20T10:09:16.642Z,21.00
2019-06-20T10:14:12.725Z,15.23
2019-06-20T10:16:50.320Z,13.95
2019-06-20T10:19:18.953Z,13.78
2019-06-20T10:21:51.954Z,12.28
2019-06-20T10:24:24.039Z,13.32
2019-06-20T10:26:58.025Z,14.07
2019-06-20T10:29:29.990Z,9.85
2019-06-20T10:32:01.624Z,11.33
2019-06-20T10:34:33.365Z,10.85
2019-06-20T10:37:05.279Z,12.63
2019-06-20T10:39:36.806Z,11.15
2019-06-20T10:42:08.244Z,16.12
2019-06-20T10:44:39.865Z,16.23
2019-06-20T10:47:11.348Z,11.85
2019-06-20T10:49:44.639Z,13.22
2019-06-20T10:52:17.619Z,13.93
2019-06-20T10:54:49.338Z,15.05
2019-06-20T10:57:20.921Z,14.50
2019-06-20T10:59:52.470Z,7.50
2019-06-20T11:02:24.108Z,12.47
2019-06-20T11:04:55.667Z,16.25
2019-06-20T11:07:31.695Z,12.65
2019-06-20T11:10:03.837Z,16.52
2019-06-20T11:12:45.809Z,17.77
2019-06-20T11:15:21.166Z,17.57
2019-06-20T11:17:56.121Z,19.23
2019-06-20T11:20:27.095Z,18.65
2019-06-20T11:22:58.750Z,12.85
2019-06-20T11:25:31.844Z,18.20
2019-06-20T11:28:03.447Z,18.20
2019-06-20T11:30:48.274Z,17.10
2019-06-20T11:33:09.064Z,17.00
2019-06-20T11:37:56.314Z,19.50
2019-06-20T11:40:29.007Z,15.15
2019-06-20T11:43:00.701Z,14.65
2019-06-20T11:45:35.418Z,13.50
2019-06-20T11:48:06.116Z,12.60
2019-06-20T11:50:37.902Z,10.35
2019-06-20T11:53:12.201Z,11.80
2019-06-20T11:55:44.095Z,8.93
2019-06-20T11:58:15.779Z,10.20
2019-06-20T12:01:02.695Z,11.08
2019-06-20T12:03:20.827Z,10.60
2019-06-20T12:05:52.809Z,10.40
2019-06-20T12:08:24.899Z,9.98
2019-06-20T12:10:56.846Z,8.70
2019-06-20T12:13:28.462Z,7.87
2019-06-20T12:16:00.106Z,9.30
2019-06-20T12:18:31.743Z,8.88
2019-06-20T12:21:03.291Z,8.68
2019-06-20T12:23:34.891Z,8.68
2019-06-20T12:26:06.588Z,7.95
2019-06-20T12:28:39.627Z,8.83
2019-06-20T12:31:19.516Z,9.30
2019-06-20T12:33:47.156Z,9.73
2019-06-20T12:36:19.439Z,9.63
2019-06-20T12:38:51.673Z,9.78
2019-06-20T12:41:24.190Z,8.65
2019-06-20T12:46:10.793Z,9.00
2019-06-20T12:48:42.815Z,9.63
2019-06-20T12:51:16.179Z,8.48
2019-06-20T12:53:48.399Z,8.53
2019-06-20T12:56:20.505Z,6.27
2019-06-20T12:58:52.040Z,8.10
2019-06-20T13:01:35.027Z,8.25
2019-06-20T13:03:57.677Z,7.70
2019-06-20T13:06:29.668Z,7.58
2019-06-20T13:09:01.244Z,7.60
2019-06-20T13:11:34.330Z,7.50
2019-06-20T13:14:06.142Z,7.00
2019-06-20T13:16:38.998Z,7.17
2019-06-20T13:19:11.318Z,6.50
2019-06-20T13:23:45.542Z,6.92
2019-06-20T13:26:18.841Z,5.10
2019-06-20T13:29:03.341Z,7.30
2019-06-20T13:31:25.052Z,5.22
2019-06-20T13:33:56.990Z,6.08
2019-06-20T13:36:42.836Z,7.10
2019-06-20T13:39:15.073Z,6.30
2019-06-20T13:41:47.830Z,5.80
2019-06-20T13:44:21.897Z,5.20
2019-06-20T13:46:53.909Z,3.77
2019-06-20T13:49:25.672Z,4.47
2019-06-20T13:51:57.150Z,4.92
2019-06-20T13:54:30.471Z,2.83
2019-06-20T13:57:02.106Z,3.42
2019-06-20T13:59:37.165Z,4.15
2019-06-20T14:02:11.788Z,5.03
2019-06-20T14:04:44.496Z,6.03
2019-06-20T14:07:17.150Z,4.70
2019-06-20T14:09:49.187Z,4.95
2019-06-20T14:12:20.806Z,4.35
2019-06-20T14:14:55.263Z,4.65
2019-06-20T14:17:26.954Z,4.85
2019-06-20T14:19:58.514Z,4.70
2019-06-20T14:22:30.508Z,4.62
2019-06-20T14:25:02.107Z,5.30
2019-06-20T14:27:35.108Z,4.70
2019-06-20T14:30:07.932Z,5.28
2019-06-20T14:32:41.493Z,5.47
2019-06-20T14:35:14.869Z,4.60
2019-06-20T14:37:49.542Z,5.37
2019-06-20T14:40:22.400Z,5.17
2019-06-20T14:42:54.775Z,4.60
2019-06-20T14:45:26.923Z,5.28
2019-06-20T14:47:58.430Z,3.72
2019-06-20T14:50:30.334Z,4.87
2019-06-20T14:53:01.914Z,4.50
2019-06-20T14:55:34.504Z,3.15
2019-06-20T14:58:06.792Z,4.53
2019-06-20T15:00:38.619Z,5.28
2019-06-20T15:03:10.254Z,5.15
2019-06-20T15:05:48.251Z,3.45
2019-06-20T15:08:28.244Z,4.90
2019-06-20T15:11:04.042Z,5.17
2019-06-20T15:13:35.618Z,6.12
2019-06-20T15:16:08.309Z,5.42
2019-06-20T15:18:40.357Z,5.65
2019-06-20T15:21:12.317Z,5.22
2019-06-20T15:23:47.217Z,5.42
2019-06-20T15:26:18.287Z,5.62
2019-06-20T15:28:52.977Z,5.17
2019-06-20T15:31:24.443Z,5.12
2019-06-20T15:33:57.204Z,5.85
2019-06-20T15:36:30.242Z,5.97
2019-06-20T15:39:05.988Z,5.85
2019-06-20T15:41:37.919Z,5.53
2019-06-20T15:44:10.740Z,3.33
2019-06-20T15:46:42.428Z,5.08
2019-06-20T15:49:16.330Z,2.80
2019-06-20T15:51:47.479Z,4.67
2019-06-20T15:54:24.426Z,4.60
2019-06-20T15:56:55.173Z,4.90
2019-06-20T15:59:26.943Z,5.00
2019-06-20T16:02:07.389Z,4.10
2019-06-20T16:04:40.452Z,4.70
2019-06-20T16:07:13.380Z,3.80
2019-06-20T16:10:00.378Z,4.67
2019-06-20T16:12:32.050Z,5.28
2019-06-20T16:15:04.706Z,4.72
2019-06-20T16:17:38.487Z,5.80
2019-06-20T16:20:12.779Z,4.72
2019-06-20T16:22:45.242Z,5.05
2019-06-20T16:25:22.736Z,5.00
2019-06-20T16:27:56.441Z,4.87
2019-06-20T16:30:33.525Z,4.83
2019-06-20T16:33:04.639Z,4.47
2019-06-20T16:35:36.438Z,5.17
2019-06-20T16:38:08.456Z,5.35
2019-06-20T16:40:48.607Z,5.72
2019-06-20T16:43:21.020Z,5.58
2019-06-20T16:45:52.737Z,5.62
2019-06-20T16:48:24.706Z,6.35
2019-06-20T16:50:58.564Z,6.58
2019-06-20T16:53:30.659Z,6.03
2019-06-20T16:56:04.766Z,5.75
2019-06-20T16:58:36.523Z,5.70
2019-06-20T17:01:08.209Z,6.10
2019-06-20T17:03:42.147Z,5.75
2019-06-20T17:06:14.087Z,6.03
2019-06-20T17:08:48.471Z,6.17
2019-06-20T17:11:20.247Z,5.65
2019-06-20T17:13:51.842Z,5.72
2019-06-20T17:16:23.774Z,4.55
2019-06-20T17:18:55.518Z,6.15
2019-06-20T17:21:33.138Z,5.90
2019-06-20T17:24:06.294Z,5.87
2019-06-20T17:26:37.958Z,5.47
2019-06-20T17:29:09.901Z,5.60
2019-06-20T17:31:41.572Z,6.20
2019-06-20T17:34:13.945Z,6.78
2019-06-20T17:36:45.974Z,3.47
2019-06-20T17:39:19.942Z,4.90
2019-06-20T17:41:55.408Z,6.53
2019-06-20T17:44:28.830Z,5.50
2019-06-20T17:47:01.503Z,6.60
2019-06-20T17:49:33.513Z,6.00
2019-06-20T17:52:05.623Z,7.20
2019-06-20T17:54:46.346Z,5.92
2019-06-20T17:57:23.438Z,6.10
2019-06-20T17:59:55.558Z,7.22
2019-06-20T18:02:29.170Z,6.87
2019-06-20T18:05:04.031Z,7.30
2019-06-20T18:07:39.084Z,7.80
2019-06-20T18:10:11.361Z,9.30
2019-06-20T18:12:43.116Z,7.10
2019-06-20T18:15:19.267Z,6.55
2019-06-20T18:17:52.973Z,6.85
2019-06-20T18:20:24.982Z,6.62
2019-06-20T18:22:56.713Z,6.53
2019-06-20T18:25:33.318Z,6.70
2019-06-20T18:28:05.698Z,6.83
2019-06-20T18:30:43.012Z,7.80
2019-06-20T18:33:15.299Z,6.42
2019-06-20T18:35:47.490Z,6.92
2019-06-20T18:38:19.613Z,7.45
2019-06-20T18:40:51.236Z,7.12
2019-06-20T18:43:22.905Z,7.42
2019-06-20T18:45:58.830Z,6.87
2019-06-20T18:48:31.359Z,7.45
2019-06-20T18:51:03.948Z,8.08
2019-06-20T18:53:37.103Z,14.18
2019-06-20T18:56:13.392Z,8.00
2019-06-20T18:58:45.805Z,7.78
2019-06-20T19:01:17.510Z,7.80
2019-06-20T19:03:50.933Z,7.42
2019-06-20T19:06:35.603Z,6.42
2019-06-20T19:08:58.167Z,8.08
2019-06-20T19:11:30.403Z,8.05
2019-06-20T19:14:01.987Z,7.85
2019-06-20T19:16:34.357Z,9.95
2019-06-20T19:19:08.770Z,7.87
2019-06-20T19:21:45.035Z,7.60
2019-06-20T19:24:17.264Z,7.72
2019-06-20T19:26:58.795Z,6.97
2019-06-20T19:29:32.394Z,8.45
2019-06-20T19:32:04.748Z,9.33
2019-06-20T19:34:36.227Z,7.72
2019-06-20T19:37:08.525Z,7.47
2019-06-20T19:39:44.034Z,7.67
2019-06-20T19:42:20.488Z,8.30
2019-06-20T19:45:03.368Z,7.90
2019-06-20T19:47:35.184Z,7.47
2019-06-20T19:50:08.037Z,8.65
2019-06-20T19:52:45.910Z,7.90
2019-06-20T19:55:21.215Z,8.33
2019-06-20T19:57:53.135Z,7.97
2019-06-20T20:00:26.021Z,7.70
2019-06-20T20:03:00.402Z,7.78
2019-06-20T20:05:35.240Z,8.45
2019-06-20T20:08:07.692Z,8.05
2019-06-20T20:10:50.322Z,8.38
2019-06-20T20:13:22.691Z,7.67
2019-06-20T20:15:54.433Z,8.00
2019-06-20T20:18:26.057Z,9.05
2019-06-20T20:20:58.765Z,7.80
2019-06-20T20:23:30.619Z,8.63
2019-06-20T20:26:08.824Z,9.03
2019-06-20T20:28:42.620Z,7.03
2019-06-20T20:31:14.744Z,8.53
2019-06-20T20:33:47.040Z,9.23
2019-06-20T20:36:24.748Z,8.25
2019-06-20T20:38:52.051Z,8.35
2019-06-20T20:41:30.653Z,8.43
2019-06-20T20:44:02.553Z,8.45
2019-06-20T20:46:56.284Z,8.43
2019-06-20T20:49:30.690Z,7.85
2019-06-20T20:52:02.334Z,7.83
2019-06-20T20:54:38.658Z,8.03
2019-06-20T20:57:12.718Z,7.33
2019-06-20T20:59:45.315Z,7.85
2019-06-20T21:02:17.513Z,7.17
2019-06-20T21:04:49.640Z,6.45
2019-06-20T21:07:22.034Z,6.78
2019-06-20T21:09:56.346Z,6.90
2019-06-20T21:12:31.212Z,6.67
2019-06-20T21:15:06.934Z,7.08
2019-06-20T21:17:39.179Z,6.80
2019-06-20T21:20:11.298Z,6.50
2019-06-20T21:22:42.896Z,6.50
2019-06-20T21:25:14.554Z,6.92
2019-06-20T21:27:48.514Z,6.92
2019-06-20T21:30:21.913Z,6.87
2019-06-20T21:32:53.488Z,6.87
2019-06-20T21:35:25.194Z,6.35
2019-06-20T21:37:56.856Z,6.58
2019-06-20T21:40:28.540Z,6.90
2019-06-20T21:43:00.099Z,38.58
2019-06-20T21:45:32.679Z,6.95
2019-06-20T21:48:05.476Z,5.45
2019-06-20T21:50:38.095Z,6.50
2019-06-20T21:53:09.750Z,6.87
2019-06-20T21:55:41.374Z,6.90
2019-06-20T21:58:12.893Z,6.42
2019-06-20T22:00:47.553Z,6.65
2019-06-20T22:03:21.024Z,6.50
2019-06-20T22:05:52.579Z,6.72
2019-06-20T22:08:24.787Z,6.25
2019-06-20T22:10:56.406Z,6.78
2019-06-20T22:13:27.929Z,6.35
2019-06-20T22:15:59.501Z,6.50
2019-06-20T22:18:32.209Z,6.80
2019-06-20T22:21:03.883Z,6.10
2019-06-20T22:23:35.676Z,6.47
2019-06-20T22:26:07.230Z,6.22
2019-06-20T22:28:38.885Z,6.80
2019-06-20T22:31:10.504Z,6.28
2019-06-20T22:33:42.193Z,6.78
2019-06-20T22:36:13.866Z,6.58
2019-06-20T22:38:45.424Z,6.60
2019-06-20T22:41:17.036Z,8.58
2019-06-20T22:43:49.099Z,5.10
2019-06-20T22:47:51.509Z,6.40
2019-06-20T22:50:23.098Z,6.08
2019-06-20T22:52:55.042Z,6.78
2019-06-20T22:55:26.576Z,6.53
2019-06-20T22:57:58.492Z,6.40
2019-06-20T23:00:30.143Z,5.78
2019-06-20T23:03:01.760Z,4.20
2019-06-20T23:05:33.717Z,6.95
2019-06-20T23:08:05.821Z,5.78
2019-06-20T23:10:37.386Z,7.10
2019-06-20T23:13:08.923Z,6.92
2019-06-20T23:15:40.728Z,6.95
2019-06-20T23:18:12.241Z,6.35
2019-06-20T23:21:00.665Z,5.53
2019-06-20T23:23:17.132Z,7.50
2019-06-20T23:25:50.899Z,6.75
2019-06-20T23:28:22.541Z,7.50
2019-06-20T23:30:54.018Z,7.67
2019-06-20T23:33:25.548Z,6.20
2019-06-20T23:36:00.018Z,6.85
2019-06-20T23:38:33.139Z,6.12
2019-06-20T23:41:04.682Z,7.92
2019-06-20T23:43:37.177Z,7.28
2019-06-20T23:46:08.757Z,7.42
2019-06-20T23:48:40.876Z,7.50
2019-06-20T23:51:25.005Z,7.50
2019-06-20T23:53:45.747Z,6.58
2019-06-20T23:56:17.372Z,5.83
2019-06-20T23:58:49.269Z,6.97
